createdAt,value
2022-12-01T00:01:45.042Z,5.50
2022-12-01T00:06:12.973Z,5.50
2022-12-01T00:10:27.037Z,5.50
2022-12-01T00:14:31.969Z,5.50
2022-12-01T00:18:37.164Z,5.50
2022-12-01T00:22:47.013Z,5.50
2022-12-01T00:26:52.127Z,5.50
2022-12-01T00:30:56.989Z,5.50
2022-12-01T00:35:02.620Z,5.50
2022-12-01T00:39:07.619Z,5.50
2022-12-01T00:43:12.576Z,5.50
2022-12-01T00:47:17.608Z,5.50
2022-12-01T00:51:22.473Z,5.50
2022-12-01T00:55:27.511Z,5.50
2022-12-01T00:59:32.344Z,5.40
2022-12-01T01:03:37.297Z,5.40
2022-12-01T01:07:42.269Z,5.50
2022-12-01T01:11:47.254Z,5.50
2022-12-01T01:16:08.121Z,5.50
2022-12-01T01:20:13.503Z,5.50
2022-12-01T01:24:18.502Z,5.40
2022-12-01T01:28:23.394Z,5.40
2022-12-01T01:32:28.412Z,5.40
2022-12-01T01:36:34.545Z,5.40
2022-12-01T01:40:48.433Z,5.40
2022-12-01T01:44:58.753Z,5.40
2022-12-01T01:49:11.792Z,5.40
2022-12-01T01:53:16.785Z,5.40
2022-12-01T01:57:29.260Z,5.40
2022-12-01T02:01:34.239Z,5.40
2022-12-01T02:05:40.185Z,5.40
2022-12-01T02:09:46.115Z,5.40
2022-12-01T02:14:22.580Z,5.40
2022-12-01T02:18:50.975Z,5.40
2022-12-01T02:23:25.417Z,5.40
2022-12-01T02:27:57.886Z,5.40
2022-12-01T02:32:40.190Z,5.40
2022-12-01T02:36:58.044Z,5.30
2022-12-01T02:41:21.452Z,5.30
2022-12-01T02:45:45.622Z,5.30
2022-12-01T02:49:53.225Z,5.30
2022-12-01T02:54:03.711Z,5.30
2022-12-01T02:58:15.376Z,5.20
2022-12-01T03:02:43.895Z,5.20
2022-12-01T03:07:24.782Z,5.30
2022-12-01T03:11:51.477Z,5.20
2022-12-01T03:16:46.982Z,5.30
2022-12-01T03:21:25.691Z,5.30
2022-12-01T03:25:31.843Z,5.30
2022-12-01T03:29:43.873Z,5.20
2022-12-01T03:34:04.883Z,5.20
2022-12-01T03:38:27.939Z,5.20
2022-12-01T03:42:38.570Z,5.20
2022-12-01T03:47:15.005Z,5.20
2022-12-01T03:51:51.528Z,5.20
2022-12-01T03:56:03.850Z,5.10
2022-12-01T04:00:11.468Z,5.10
2022-12-01T04:04:16.568Z,5.20
2022-12-01T04:08:21.926Z,5.20
2022-12-01T04:12:29.496Z,5.20
2022-12-01T04:16:34.498Z,5.20
2022-12-01T04:20:39.471Z,5.20
2022-12-01T04:24:44.894Z,5.20
2022-12-01T04:28:49.746Z,5.20
2022-12-01T04:32:54.669Z,5.20
2022-12-01T04:36:59.591Z,5.20
2022-12-01T04:41:12.054Z,5.20
2022-12-01T04:45:16.985Z,5.20
2022-12-01T04:49:22.414Z,5.20
2022-12-01T04:53:27.320Z,5.20
2022-12-01T04:57:32.208Z,5.20
2022-12-01T05:01:37.139Z,5.90
2022-12-01T05:05:42.278Z,5.60
2022-12-01T05:09:47.430Z,5.40
2022-12-01T05:13:52.564Z,5.30
2022-12-01T05:17:57.467Z,5.20
2022-12-01T05:22:02.388Z,5.20
2022-12-01T05:26:09.467Z,5.20
2022-12-01T05:30:14.514Z,5.20
2022-12-01T05:34:19.385Z,5.20
2022-12-01T05:38:24.384Z,5.20
2022-12-01T05:42:29.242Z,5.10
2022-12-01T05:46:34.096Z,5.10
2022-12-01T05:50:40.081Z,5.10
2022-12-01T05:54:45.053Z,5.10
2022-12-01T05:58:49.930Z,5.10
2022-12-01T06:02:54.802Z,5.10
2022-12-01T06:06:59.686Z,5.10
2022-12-01T06:11:04.679Z,5.10
2022-12-01T06:15:12.433Z,5.10
2022-12-01T06:19:17.392Z,5.10
2022-12-01T06:23:26.303Z,5.00
2022-12-01T06:27:33.862Z,5.00
2022-12-01T06:31:38.896Z,5.00
2022-12-01T06:35:43.894Z,4.90
2022-12-01T06:39:49.238Z,4.80
2022-12-01T06:43:54.793Z,4.90
2022-12-01T06:47:59.657Z,4.80
2022-12-01T06:52:05.273Z,4.80
2022-12-01T06:56:10.249Z,4.80
2022-12-01T07:00:15.988Z,4.80
2022-12-01T07:04:21.325Z,4.80
2022-12-01T07:08:28.460Z,4.70
2022-12-01T07:12:33.536Z,4.60
2022-12-01T07:16:38.705Z,4.60
2022-12-01T07:20:43.711Z,4.60
2022-12-01T07:24:48.655Z,4.60
2022-12-01T07:28:53.527Z,4.60
2022-12-01T07:32:58.589Z,4.70
2022-12-01T07:37:03.574Z,4.60
2022-12-01T07:41:14.821Z,4.60
2022-12-01T07:45:19.769Z,4.60
2022-12-01T07:49:24.851Z,4.50
2022-12-01T07:53:29.852Z,4.40
2022-12-01T07:57:34.749Z,4.50
2022-12-01T08:01:44.251Z,4.50
2022-12-01T08:05:57.687Z,4.50
2022-12-01T08:10:02.728Z,4.50
2022-12-01T08:14:07.758Z,4.50
2022-12-01T08:18:13.631Z,4.50
2022-12-01T08:22:18.586Z,4.50
2022-12-01T08:26:25.607Z,4.50
2022-12-01T08:30:30.673Z,4.50
2022-12-01T08:34:38.501Z,4.50
2022-12-01T08:38:48.769Z,4.50
2022-12-01T08:42:53.692Z,4.40
2022-12-01T08:46:58.618Z,4.40
2022-12-01T08:51:10.454Z,4.40
2022-12-01T08:55:15.440Z,4.40
2022-12-01T08:59:20.337Z,4.40
2022-12-01T09:03:25.396Z,4.40
2022-12-01T09:07:30.412Z,4.30
2022-12-01T09:11:35.588Z,4.30
2022-12-01T09:15:40.440Z,4.30
2022-12-01T09:19:45.424Z,4.20
2022-12-01T09:23:50.843Z,4.30
2022-12-01T09:27:56.213Z,4.20
2022-12-01T09:32:01.284Z,4.30
2022-12-01T09:36:10.390Z,4.30
2022-12-01T09:40:15.874Z,4.40
2022-12-01T09:44:46.011Z,4.30
2022-12-01T09:48:53.190Z,4.30
2022-12-01T09:53:08.184Z,4.40
2022-12-01T09:57:36.103Z,4.40
2022-12-01T10:01:46.938Z,4.40
2022-12-01T10:06:27.122Z,4.40
2022-12-01T10:10:46.469Z,4.30
2022-12-01T10:14:51.424Z,4.40
2022-12-01T10:19:29.532Z,4.30
2022-12-01T10:23:44.940Z,4.30
2022-12-01T10:28:31.394Z,4.30
2022-12-01T10:32:47.771Z,4.40
2022-12-01T10:36:52.925Z,4.30
2022-12-01T10:41:01.202Z,4.40
2022-12-01T10:45:18.894Z,4.40
2022-12-01T10:49:38.433Z,4.40
2022-12-01T10:53:43.389Z,4.50
2022-12-01T10:57:49.101Z,4.50
2022-12-01T11:01:55.338Z,4.60
2022-12-01T11:06:04.708Z,4.60
2022-12-01T11:10:21.910Z,4.60
2022-12-01T11:14:52.861Z,4.60
2022-12-01T11:19:28.677Z,4.70
2022-12-01T11:23:37.895Z,4.70
2022-12-01T11:27:54.229Z,4.60
2022-12-01T11:32:00.790Z,4.70
2022-12-01T11:36:06.391Z,4.70
2022-12-01T11:40:27.090Z,4.70
2022-12-01T11:44:50.832Z,4.70
2022-12-01T11:49:01.234Z,4.80
2022-12-01T11:53:29.714Z,4.80
2022-12-01T11:57:35.298Z,4.80
2022-12-01T12:01:58.955Z,4.80
2022-12-01T12:06:39.603Z,4.80
2022-12-01T12:10:49.724Z,4.80
2022-12-01T12:15:17.270Z,4.80
2022-12-01T12:20:08.073Z,4.80
2022-12-01T12:24:38.384Z,4.90
2022-12-01T12:29:16.345Z,4.90
2022-12-01T12:33:30.264Z,4.80
2022-12-01T12:38:26.572Z,4.80
2022-12-01T12:43:15.419Z,4.90
2022-12-01T12:47:54.958Z,4.90
2022-12-01T12:52:16.867Z,4.90
2022-12-01T12:56:26.291Z,4.80
2022-12-01T13:00:31.435Z,4.80
2022-12-01T13:04:59.877Z,4.80
2022-12-01T13:09:35.525Z,4.80
2022-12-01T13:14:08.164Z,4.70
2022-12-01T13:18:46.879Z,4.80
2022-12-01T13:22:53.577Z,4.80
2022-12-01T13:27:05.261Z,4.70
2022-12-01T13:31:16.163Z,4.70
2022-12-01T13:35:37.773Z,4.70
2022-12-01T13:39:44.719Z,4.70
2022-12-01T13:44:04.542Z,4.70
2022-12-01T13:48:37.357Z,4.70
2022-12-01T13:52:50.542Z,4.70
2022-12-01T13:57:14.073Z,4.70
2022-12-01T14:01:22.521Z,4.70
2022-12-01T14:05:39.628Z,4.70
2022-12-01T14:09:44.532Z,4.70
2022-12-01T14:14:25.556Z,4.70
2022-12-01T14:18:41.277Z,4.70
2022-12-01T14:22:50.372Z,4.70
2022-12-01T14:26:56.017Z,4.60
2022-12-01T14:31:04.132Z,4.60
2022-12-01T14:35:13.805Z,4.60
2022-12-01T14:39:27.417Z,4.60
2022-12-01T14:43:52.008Z,4.70
2022-12-01T14:48:09.511Z,4.70
2022-12-01T14:52:29.265Z,4.60
2022-12-01T14:56:36.081Z,4.60
2022-12-01T15:01:13.093Z,4.60
2022-12-01T15:05:21.899Z,4.60
2022-12-01T15:09:35.187Z,4.50
2022-12-01T15:13:53.389Z,4.50
2022-12-01T15:18:01.712Z,4.50
2022-12-01T15:22:17.513Z,4.50
2022-12-01T15:26:25.955Z,4.50
2022-12-01T15:30:31.607Z,4.50
2022-12-01T15:34:47.147Z,4.40
2022-12-01T15:38:53.598Z,4.40
2022-12-01T15:43:14.733Z,4.40
2022-12-01T15:47:56.774Z,4.40
2022-12-01T15:52:10.702Z,4.40
2022-12-01T15:56:16.081Z,5.10
2022-12-01T16:00:23.105Z,4.70
2022-12-01T16:04:35.411Z,4.50
2022-12-01T16:08:40.591Z,4.40
2022-12-01T16:12:45.574Z,4.40
2022-12-01T16:16:51.912Z,4.30
2022-12-01T16:21:05.750Z,4.50
2022-12-01T16:25:29.194Z,4.40
2022-12-01T16:30:03.345Z,4.30
2022-12-01T16:34:44.030Z,4.20
2022-12-01T16:38:42.762Z,4.20
2022-12-01T16:42:49.881Z,4.20
2022-12-01T16:46:54.767Z,4.10
2022-12-01T16:51:05.363Z,4.10
2022-12-01T16:55:33.813Z,4.10
2022-12-01T16:59:38.686Z,4.10
2022-12-01T17:03:43.591Z,4.10
2022-12-01T17:07:48.569Z,4.20
2022-12-01T17:11:54.712Z,4.10
2022-12-01T17:16:06.195Z,4.10
2022-12-01T17:20:11.833Z,4.10
2022-12-01T17:24:19.199Z,4.70
2022-12-01T17:28:24.773Z,4.40
2022-12-01T17:32:29.766Z,5.00
2022-12-01T17:36:34.640Z,4.50
2022-12-01T17:40:39.474Z,4.20
2022-12-01T17:44:44.413Z,4.10
2022-12-01T17:48:49.412Z,4.00
2022-12-01T17:52:54.453Z,4.00
2022-12-01T17:56:59.592Z,3.90
2022-12-01T18:01:05.804Z,3.80
2022-12-01T18:05:11.315Z,3.90
2022-12-01T18:09:16.330Z,3.80
2022-12-01T18:13:22.565Z,3.80
2022-12-01T18:17:27.572Z,3.80
2022-12-01T18:21:32.415Z,3.80
2022-12-01T18:25:39.159Z,3.80
2022-12-01T18:29:44.000Z,3.80
2022-12-01T18:33:48.879Z,3.80
2022-12-01T18:37:53.933Z,3.80
2022-12-01T18:41:58.973Z,3.70
2022-12-01T18:46:05.273Z,3.80
2022-12-01T18:50:10.513Z,3.70
2022-12-01T18:54:16.154Z,3.70
2022-12-01T18:58:21.143Z,3.60
2022-12-01T19:02:26.470Z,3.60
2022-12-01T19:06:34.461Z,3.60
2022-12-01T19:10:39.475Z,3.60
2022-12-01T19:14:44.389Z,3.60
2022-12-01T19:18:49.770Z,3.60
2022-12-01T19:22:54.664Z,3.60
2022-12-01T19:26:59.564Z,3.60
2022-12-01T19:31:11.291Z,3.60
2022-12-01T19:35:16.442Z,3.50
2022-12-01T19:39:21.447Z,3.60
2022-12-01T19:43:26.358Z,3.60
2022-12-01T19:47:35.482Z,3.50
2022-12-01T19:51:40.845Z,3.50
2022-12-01T19:55:45.799Z,3.50
2022-12-01T19:59:50.721Z,3.40
2022-12-01T20:03:55.897Z,3.50
2022-12-01T20:08:02.736Z,3.40
2022-12-01T20:12:07.769Z,3.40
2022-12-01T20:16:16.968Z,3.40
2022-12-01T20:20:21.943Z,3.30
2022-12-01T20:24:26.825Z,3.30
2022-12-01T20:28:33.683Z,3.40
2022-12-01T20:32:38.592Z,3.30
2022-12-01T20:36:43.912Z,3.40
2022-12-01T20:40:51.729Z,3.30
2022-12-01T20:44:56.816Z,3.40
2022-12-01T20:49:01.718Z,3.40
2022-12-01T20:53:06.693Z,3.40
2022-12-01T20:57:11.568Z,3.40
2022-12-01T21:01:17.631Z,3.30
2022-12-01T21:05:26.973Z,3.40
2022-12-01T21:09:31.850Z,3.40
2022-12-01T21:13:42.041Z,3.40
2022-12-01T21:17:53.959Z,3.40
2022-12-01T21:21:59.220Z,3.30
2022-12-01T21:26:15.428Z,3.30
2022-12-01T21:30:26.312Z,3.30
2022-12-01T21:34:35.610Z,3.30
2022-12-01T21:38:43.290Z,3.30
2022-12-01T21:42:48.584Z,3.20
2022-12-01T21:46:58.055Z,3.20
2022-12-01T21:51:25.321Z,3.10
2022-12-01T21:55:35.837Z,3.20
2022-12-01T21:59:40.691Z,3.10
2022-12-01T22:03:46.783Z,3.10
2022-12-01T22:08:00.266Z,3.00
2022-12-01T22:12:26.136Z,3.10
2022-12-01T22:16:35.244Z,3.10
2022-12-01T22:20:40.098Z,3.00
2022-12-01T22:24:51.568Z,3.00
2022-12-01T22:28:59.232Z,2.90
2022-12-01T22:33:14.132Z,2.90
2022-12-01T22:37:24.175Z,2.80
2022-12-01T22:41:29.094Z,2.80
2022-12-01T22:45:33.918Z,2.70
2022-12-01T22:49:38.769Z,2.80
2022-12-01T22:53:45.870Z,2.80
2022-12-01T22:57:50.824Z,2.90
2022-12-01T23:02:02.767Z,2.90
2022-12-01T23:06:49.411Z,2.80
2022-12-01T23:10:54.261Z,2.80
2022-12-01T23:15:14.790Z,2.80
2022-12-01T23:19:19.680Z,2.80
2022-12-01T23:23:30.262Z,2.80
2022-12-01T23:27:35.184Z,2.80
2022-12-01T23:31:40.266Z,2.80
2022-12-01T23:36:15.992Z,2.80
2022-12-01T23:40:34.140Z,2.80
2022-12-01T23:44:49.612Z,2.80
2022-12-01T23:49:03.360Z,2.90
2022-12-01T23:53:30.983Z,2.90
2022-12-01T23:57:37.296Z,2.80
